createdAt,value
2023-03-16T00:00:38.251Z,1024.65
2023-03-16T00:01:38.283Z,1024.65
2023-03-16T00:02:38.280Z,1024.67
2023-03-16T00:03:38.372Z,1024.66
2023-03-16T00:04:38.248Z,1024.67
2023-03-16T00:05:38.247Z,1024.68
2023-03-16T00:06:38.272Z,1024.74
2023-03-16T00:07:38.250Z,1024.76
2023-03-16T00:08:38.244Z,1024.76
2023-03-16T00:09:38.259Z,1024.75
2023-03-16T00:10:38.262Z,1024.79
2023-03-16T00:11:38.247Z,1024.82
2023-03-16T00:12:38.245Z,1024.84
2023-03-16T00:13:38.252Z,1024.8
2023-03-16T00:14:38.236Z,1024.8
2023-03-16T00:15:38.246Z,1024.83
2023-03-16T00:16:38.288Z,1024.8
2023-03-16T00:17:38.262Z,1024.81
2023-03-16T00:18:38.244Z,1024.79
2023-03-16T00:19:38.253Z,1024.81
2023-03-16T00:20:38.246Z,1024.8
2023-03-16T00:21:38.262Z,1024.77
2023-03-16T00:22:38.249Z,1024.79
2023-03-16T00:23:38.300Z,1024.77
2023-03-16T00:24:38.247Z,1024.81
2023-03-16T00:25:38.245Z,1024.79
2023-03-16T00:26:38.263Z,1024.81
2023-03-16T00:27:38.246Z,1024.8
2023-03-16T00:28:38.252Z,1024.78
2023-03-16T00:29:38.238Z,1024.82
2023-03-16T00:30:38.234Z,1024.82
2023-03-16T00:31:38.393Z,1024.82
2023-03-16T00:32:38.300Z,1024.84
2023-03-16T00:33:38.246Z,1024.81
2023-03-16T00:34:38.241Z,1024.83
2023-03-16T00:35:38.292Z,1024.8
2023-03-16T00:36:38.264Z,1024.83
2023-03-16T00:37:38.383Z,1024.83
2023-03-16T00:38:38.251Z,1024.87
2023-03-16T00:39:38.244Z,1024.84
2023-03-16T00:40:38.232Z,1024.86
2023-03-16T00:41:38.292Z,1024.82
2023-03-16T00:42:38.256Z,1024.83
2023-03-16T00:43:38.290Z,1024.81
2023-03-16T00:44:38.239Z,1024.81
2023-03-16T00:45:38.327Z,1024.81
2023-03-16T00:46:38.256Z,1024.82
2023-03-16T00:47:38.253Z,1024.78
2023-03-16T00:48:38.247Z,1024.8
2023-03-16T00:49:38.238Z,1024.77
2023-03-16T00:50:38.233Z,1024.82
2023-03-16T00:51:38.259Z,1024.81
2023-03-16T00:52:38.241Z,1024.81
2023-03-16T00:53:38.244Z,1024.83
2023-03-16T00:54:38.236Z,1024.81
2023-03-16T00:55:38.246Z,1024.83
2023-03-16T00:56:38.261Z,1024.83
2023-03-16T00:57:38.238Z,1024.83
2023-03-16T00:58:38.226Z,1024.8
2023-03-16T00:59:38.236Z,1024.83
2023-03-16T01:00:38.245Z,1024.82
2023-03-16T01:01:38.326Z,1024.82
2023-03-16T01:02:38.266Z,1024.85
2023-03-16T01:03:38.386Z,1024.82
2023-03-16T01:04:38.233Z,1024.84
2023-03-16T01:05:38.233Z,1024.84
2023-03-16T01:06:39.850Z,1024.88
2023-03-16T01:07:38.258Z,1024.87
2023-03-16T01:08:38.240Z,1024.88
2023-03-16T01:09:38.240Z,1024.9
2023-03-16T01:10:38.254Z,1024.89
2023-03-16T01:11:38.250Z,1024.85
2023-03-16T01:12:38.235Z,1024.86
2023-03-16T01:13:38.246Z,1024.86
2023-03-16T01:14:38.240Z,1024.9
2023-03-16T01:15:38.244Z,1024.93
2023-03-16T01:16:38.359Z,1024.9
2023-03-16T01:17:38.257Z,1024.88
2023-03-16T01:18:38.249Z,1024.88
2023-03-16T01:19:38.255Z,1024.89
2023-03-16T01:20:38.244Z,1024.89
2023-03-16T01:21:38.268Z,1024.9
2023-03-16T01:22:38.228Z,1024.96
2023-03-16T01:23:38.238Z,1024.91
2023-03-16T01:24:38.262Z,1024.94
2023-03-16T01:25:38.244Z,1024.96
2023-03-16T01:26:38.265Z,1024.93
2023-03-16T01:27:38.242Z,1024.94
2023-03-16T01:28:38.239Z,1024.98
2023-03-16T01:29:38.243Z,1024.98
2023-03-16T01:30:38.265Z,1024.99
2023-03-16T01:31:38.253Z,1024.98
2023-03-16T01:32:38.298Z,1024.98
2023-03-16T01:33:38.251Z,1024.97
2023-03-16T01:34:38.251Z,1025.02
2023-03-16T01:35:38.291Z,1024.98
2023-03-16T01:36:38.256Z,1025.01
2023-03-16T01:37:38.236Z,1024.98
2023-03-16T01:38:38.236Z,1024.97
2023-03-16T01:39:38.250Z,1024.94
2023-03-16T01:40:38.242Z,1024.94
2023-03-16T01:41:38.426Z,1024.94
2023-03-16T01:42:38.243Z,1024.99
2023-03-16T01:43:38.245Z,1025.01
2023-03-16T01:44:38.243Z,1024.98
2023-03-16T01:45:38.242Z,1025.01
2023-03-16T01:46:38.311Z,1025
2023-03-16T01:47:38.368Z,1024.98
2023-03-16T01:48:38.258Z,1025
2023-03-16T01:49:38.247Z,1025.06
2023-03-16T01:50:38.245Z,1025.06
2023-03-16T01:51:38.261Z,1025.06
2023-03-16T01:52:38.252Z,1025.08
2023-03-16T01:53:38.241Z,1025.08
2023-03-16T01:54:38.232Z,1025.07
2023-03-16T01:55:38.245Z,1025.08
2023-03-16T01:56:38.252Z,1025.06
2023-03-16T01:57:38.229Z,1025.06
2023-03-16T01:58:38.241Z,1025.06
2023-03-16T01:59:38.243Z,1025.08
2023-03-16T02:00:38.232Z,1025.07
2023-03-16T02:01:38.321Z,1025.02
2023-03-16T02:02:38.251Z,1025.01
2023-03-16T02:03:38.235Z,1025.04
2023-03-16T02:04:38.266Z,1024.98
2023-03-16T02:05:38.243Z,1025.02
2023-03-16T02:06:38.276Z,1024.99
2023-03-16T02:07:38.235Z,1025.02
2023-03-16T02:08:38.236Z,1025.03
2023-03-16T02:09:38.240Z,1025
2023-03-16T02:10:38.234Z,1025.09
2023-03-16T02:11:38.250Z,1025.07
2023-03-16T02:12:38.241Z,1025.07
2023-03-16T02:13:38.245Z,1025.13
2023-03-16T02:14:38.253Z,1025.11
2023-03-16T02:15:38.277Z,1025.09
2023-03-16T02:16:38.274Z,1025.11
2023-03-16T02:17:38.274Z,1025.11
2023-03-16T02:18:38.240Z,1025.1
2023-03-16T02:19:38.234Z,1025.14
2023-03-16T02:20:38.236Z,1025.12
2023-03-16T02:21:38.260Z,1025.12
2023-03-16T02:22:38.239Z,1025.14
2023-03-16T02:23:38.228Z,1025.12
2023-03-16T02:24:38.241Z,1025.13
2023-03-16T02:25:38.236Z,1025.12
2023-03-16T02:26:38.258Z,1025.11
2023-03-16T02:27:38.246Z,1025.12
2023-03-16T02:28:38.242Z,1025.16
2023-03-16T02:29:38.244Z,1025.16
2023-03-16T02:30:38.235Z,1025.14
2023-03-16T02:31:38.257Z,1025.2
2023-03-16T02:32:38.296Z,1025.21
2023-03-16T02:33:38.239Z,1025.19
2023-03-16T02:34:38.246Z,1025.19
2023-03-16T02:35:38.324Z,1025.2
2023-03-16T02:36:38.247Z,1025.16
2023-03-16T02:37:38.242Z,1025.22
2023-03-16T02:38:38.262Z,1025.2
2023-03-16T02:39:38.238Z,1025.24
2023-03-16T02:40:38.242Z,1025.22
2023-03-16T02:41:38.255Z,1025.22
2023-03-16T02:42:38.236Z,1025.2
2023-03-16T02:43:38.253Z,1025.23
2023-03-16T02:44:38.255Z,1025.23
2023-03-16T02:45:38.242Z,1025.26
2023-03-16T02:46:38.307Z,1025.25
2023-03-16T02:47:38.247Z,1025.27
2023-03-16T02:48:38.232Z,1025.25
2023-03-16T02:49:38.245Z,1025.22
2023-03-16T02:50:38.237Z,1025.24
2023-03-16T02:51:38.246Z,1025.27
2023-03-16T02:52:38.244Z,1025.27
2023-03-16T02:53:38.257Z,1025.26
2023-03-16T02:54:38.239Z,1025.24
2023-03-16T02:55:38.239Z,1025.29
2023-03-16T02:56:38.273Z,1025.29
2023-03-16T02:57:38.246Z,1025.29
2023-03-16T02:58:38.234Z,1025.3
2023-03-16T02:59:38.241Z,1025.33
2023-03-16T03:00:38.220Z,1025.34
2023-03-16T03:01:38.264Z,1025.31
2023-03-16T03:02:38.246Z,1025.32
2023-03-16T03:03:38.292Z,1025.3
2023-03-16T03:04:38.237Z,1025.34
2023-03-16T03:05:38.255Z,1025.35
2023-03-16T03:06:38.256Z,1025.35
2023-03-16T03:07:38.255Z,1025.33
2023-03-16T03:08:38.243Z,1025.35
2023-03-16T03:09:38.233Z,1025.32
2023-03-16T03:10:38.248Z,1025.33
2023-03-16T03:11:38.245Z,1025.34
2023-03-16T03:12:38.310Z,1025.37
2023-03-16T03:13:38.246Z,1025.33
2023-03-16T03:14:38.252Z,1025.37
2023-03-16T03:15:38.252Z,1025.36
2023-03-16T03:16:38.290Z,1025.38
2023-03-16T03:17:38.258Z,1025.4
2023-03-16T03:18:38.256Z,1025.38
2023-03-16T03:19:38.240Z,1025.42
2023-03-16T03:20:38.243Z,1025.47
2023-03-16T03:21:38.261Z,1025.43
2023-03-16T03:22:38.235Z,1025.46
2023-03-16T03:23:38.243Z,1025.46
2023-03-16T03:24:38.232Z,1025.45
2023-03-16T03:25:38.231Z,1025.47
2023-03-16T03:26:38.287Z,1025.53
2023-03-16T03:27:38.424Z,1025.49
2023-03-16T03:28:38.238Z,1025.46
2023-03-16T03:29:38.238Z,1025.52
2023-03-16T03:30:38.240Z,1025.5
2023-03-16T03:31:38.372Z,1025.52
2023-03-16T03:32:38.334Z,1025.47
2023-03-16T03:33:38.238Z,1025.46
2023-03-16T03:34:38.232Z,1025.48
2023-03-16T03:35:38.275Z,1025.49
2023-03-16T03:36:38.259Z,1025.54
2023-03-16T03:37:38.229Z,1025.53
2023-03-16T03:38:38.243Z,1025.52
2023-03-16T03:39:38.232Z,1025.52
2023-03-16T03:40:38.233Z,1025.54
2023-03-16T03:41:38.256Z,1025.59
2023-03-16T03:42:38.230Z,1025.58
2023-03-16T03:43:38.248Z,1025.57
2023-03-16T03:44:38.239Z,1025.57
2023-03-16T03:45:38.344Z,1025.54
2023-03-16T03:46:38.462Z,1025.52
2023-03-16T03:47:38.268Z,1025.55
2023-03-16T03:48:38.255Z,1025.53
2023-03-16T03:49:38.251Z,1025.56
2023-03-16T03:50:38.243Z,1025.55
2023-03-16T03:51:38.258Z,1025.53
2023-03-16T03:52:38.228Z,1025.58
2023-03-16T03:53:38.236Z,1025.58
2023-03-16T03:54:38.235Z,1025.59
2023-03-16T03:55:38.241Z,1025.6
2023-03-16T03:56:38.248Z,1025.58
2023-03-16T03:57:38.239Z,1025.58
2023-03-16T03:58:38.238Z,1025.59
2023-03-16T03:59:38.242Z,1025.64
2023-03-16T04:00:38.238Z,1025.64
2023-03-16T04:01:38.248Z,1025.62
2023-03-16T04:02:38.411Z,1025.64
2023-03-16T04:03:38.234Z,1025.66
2023-03-16T04:04:38.239Z,1025.7
2023-03-16T04:05:38.246Z,1025.66
2023-03-16T04:06:38.257Z,1025.64
2023-03-16T04:07:38.237Z,1025.64
2023-03-16T04:08:38.235Z,1025.63
2023-03-16T04:09:38.235Z,1025.69
2023-03-16T04:10:38.244Z,1025.68
2023-03-16T04:11:38.259Z,1025.67
2023-03-16T04:12:38.241Z,1025.71
2023-03-16T04:13:38.236Z,1025.7
2023-03-16T04:14:38.224Z,1025.73
2023-03-16T04:15:38.237Z,1025.74
2023-03-16T04:16:38.315Z,1025.74
2023-03-16T04:17:38.239Z,1025.74
2023-03-16T04:18:38.422Z,1025.77
2023-03-16T04:19:38.240Z,1025.76
2023-03-16T04:20:38.239Z,1025.74
2023-03-16T04:21:38.266Z,1025.75
2023-03-16T04:22:38.235Z,1025.76
2023-03-16T04:23:38.228Z,1025.76
2023-03-16T04:24:38.229Z,1025.75
2023-03-16T04:25:38.237Z,1025.74
2023-03-16T04:26:38.245Z,1025.74
2023-03-16T04:27:38.236Z,1025.74
2023-03-16T04:28:38.234Z,1025.76
2023-03-16T04:29:38.237Z,1025.82
2023-03-16T04:30:38.294Z,1025.78
2023-03-16T04:31:38.252Z,1025.83
2023-03-16T04:32:38.287Z,1025.77
2023-03-16T04:33:38.227Z,1025.8
2023-03-16T04:34:38.230Z,1025.8
2023-03-16T04:35:38.255Z,1025.76
2023-03-16T04:36:38.246Z,1025.78
2023-03-16T04:37:38.235Z,1025.77
2023-03-16T04:38:38.234Z,1025.76
2023-03-16T04:39:38.239Z,1025.78
2023-03-16T04:40:38.241Z,1025.81
2023-03-16T04:41:38.254Z,1025.84
2023-03-16T04:42:38.223Z,1025.78
2023-03-16T04:43:38.238Z,1025.78
2023-03-16T04:44:38.239Z,1025.81
2023-03-16T04:45:38.243Z,1025.83
2023-03-16T04:46:38.378Z,1025.8
2023-03-16T04:47:38.259Z,1025.8
2023-03-16T04:48:38.239Z,1025.82
2023-03-16T04:49:38.238Z,1025.83
2023-03-16T04:50:38.255Z,1025.83
2023-03-16T04:51:38.246Z,1025.82
2023-03-16T04:52:38.247Z,1025.84
2023-03-16T04:53:38.237Z,1025.82
2023-03-16T04:54:38.236Z,1025.82
2023-03-16T04:55:38.234Z,1025.87
2023-03-16T04:56:38.271Z,1025.85
2023-03-16T04:57:38.240Z,1025.85
2023-03-16T04:58:38.244Z,1025.85
2023-03-16T04:59:38.257Z,1025.91
2023-03-16T05:00:38.235Z,1025.86
2023-03-16T05:01:38.358Z,1025.89
2023-03-16T05:02:38.272Z,1025.95
2023-03-16T05:03:38.243Z,1025.9
2023-03-16T05:04:38.237Z,1025.9
2023-03-16T05:05:38.255Z,1025.93
2023-03-16T05:06:38.248Z,1025.87
2023-03-16T05:07:38.245Z,1025.93
2023-03-16T05:08:38.253Z,1025.92
2023-03-16T05:09:38.231Z,1025.93
2023-03-16T05:10:38.237Z,1025.92
2023-03-16T05:11:38.250Z,1025.94
2023-03-16T05:12:38.245Z,1025.93
2023-03-16T05:13:38.229Z,1025.92
2023-03-16T05:14:38.236Z,1025.91
2023-03-16T05:15:38.288Z,1025.9
2023-03-16T05:16:38.260Z,1025.95
2023-03-16T05:17:38.250Z,1025.95
2023-03-16T05:18:38.245Z,1025.95
2023-03-16T05:19:38.224Z,1026
2023-03-16T05:20:38.247Z,1026
2023-03-16T05:21:38.267Z,1026
2023-03-16T05:22:38.237Z,1025.99
2023-03-16T05:23:38.237Z,1026
2023-03-16T05:24:38.275Z,1026.01
2023-03-16T05:25:38.229Z,1026.02
2023-03-16T05:26:38.273Z,1026.02
2023-03-16T05:27:38.242Z,1026.01
2023-03-16T05:28:38.229Z,1026.02
2023-03-16T05:29:38.237Z,1026
2023-03-16T05:30:38.232Z,1026
2023-03-16T05:31:38.354Z,1026.01
2023-03-16T05:32:38.277Z,1025.98
2023-03-16T05:33:38.236Z,1026.01
2023-03-16T05:34:38.238Z,1026.01
2023-03-16T05:35:38.489Z,1026.02
2023-03-16T05:36:38.267Z,1025.98
2023-03-16T05:37:38.243Z,1026.02
2023-03-16T05:38:38.245Z,1026.02
2023-03-16T05:39:38.249Z,1026.01
2023-03-16T05:40:38.243Z,1026.04
2023-03-16T05:41:38.274Z,1026.04
2023-03-16T05:42:38.251Z,1026.01
2023-03-16T05:43:38.239Z,1026.01
2023-03-16T05:44:38.246Z,1025.99
2023-03-16T05:45:38.251Z,1026.01
2023-03-16T05:46:38.304Z,1026.02
2023-03-16T05:47:38.262Z,1026.01
2023-03-16T05:48:38.252Z,1026.05
2023-03-16T05:49:38.240Z,1026.02
2023-03-16T05:50:38.249Z,1026.04
2023-03-16T05:51:38.270Z,1026.03
2023-03-16T05:52:38.243Z,1026.1
2023-03-16T05:53:38.289Z,1026.1
2023-03-16T05:54:38.232Z,1026.1
2023-03-16T05:55:38.239Z,1026.09
2023-03-16T05:56:38.256Z,1026.08
2023-03-16T05:57:38.251Z,1026.08
2023-03-16T05:58:38.252Z,1026.07
2023-03-16T05:59:38.228Z,1026.1
2023-03-16T06:00:38.266Z,1026.06
2023-03-16T06:01:38.246Z,1026.08
2023-03-16T06:02:38.328Z,1026.08
2023-03-16T06:03:38.305Z,1026.07
2023-03-16T06:04:38.260Z,1026.08
2023-03-16T06:05:38.239Z,1026.06
2023-03-16T06:06:38.253Z,1026.09
2023-03-16T06:07:38.250Z,1026.04
2023-03-16T06:08:38.256Z,1026.04
2023-03-16T06:09:38.246Z,1026.04
2023-03-16T06:10:38.248Z,1026.04
2023-03-16T06:11:38.246Z,1026.04
2023-03-16T06:12:38.246Z,1026.01
2023-03-16T06:13:38.242Z,1026.02
2023-03-16T06:14:38.248Z,1026.04
2023-03-16T06:15:38.241Z,1026.06
2023-03-16T06:16:38.376Z,1025.99
2023-03-16T06:17:38.249Z,1026.01
2023-03-16T06:18:38.241Z,1026.05
2023-03-16T06:19:38.233Z,1025.96
2023-03-16T06:20:38.244Z,1025.93
2023-03-16T06:21:38.306Z,1025.97
2023-03-16T06:22:38.232Z,1025.93
2023-03-16T06:23:38.246Z,1026
2023-03-16T06:24:38.248Z,1025.96
2023-03-16T06:25:40.608Z,1026.01
2023-03-16T06:26:38.254Z,1026.01
2023-03-16T06:27:38.230Z,1025.98
2023-03-16T06:28:38.234Z,1026.03
2023-03-16T06:29:38.238Z,1025.97
2023-03-16T06:30:38.251Z,1026
2023-03-16T06:31:38.432Z,1025.96
2023-03-16T06:32:38.386Z,1025.98
2023-03-16T06:33:38.241Z,1025.96
2023-03-16T06:34:38.477Z,1025.97
2023-03-16T06:35:38.273Z,1025.96
2023-03-16T06:36:38.256Z,1025.95
2023-03-16T06:37:38.241Z,1026.01
2023-03-16T06:38:38.234Z,1025.98
2023-03-16T06:39:38.249Z,1025.96
2023-03-16T06:40:38.235Z,1025.95
2023-03-16T06:41:38.285Z,1025.95
2023-03-16T06:42:38.251Z,1026
2023-03-16T06:43:38.242Z,1025.97
2023-03-16T06:44:38.249Z,1025.99
2023-03-16T06:45:38.285Z,1026.03
2023-03-16T06:46:38.283Z,1026.03
2023-03-16T06:47:38.275Z,1026.06
2023-03-16T06:48:38.247Z,1026.03
2023-03-16T06:49:38.245Z,1026.06
2023-03-16T06:50:38.243Z,1026.1
2023-03-16T06:51:38.258Z,1026.12
2023-03-16T06:52:38.254Z,1026.08
2023-03-16T06:53:38.248Z,1026.1
2023-03-16T06:54:38.236Z,1026.12
2023-03-16T06:55:38.250Z,1026.1
2023-03-16T06:56:38.260Z,1026.14
2023-03-16T06:57:38.230Z,1026.14
2023-03-16T06:58:38.251Z,1026.08
2023-03-16T06:59:38.241Z,1026.07
2023-03-16T07:00:38.247Z,1026.07
2023-03-16T07:01:38.273Z,1026.03
2023-03-16T07:02:38.252Z,1026.08
2023-03-16T07:03:38.251Z,1026.13
2023-03-16T07:04:38.258Z,1026.13
2023-03-16T07:05:38.246Z,1026.09
2023-03-16T07:06:38.256Z,1026.16
2023-03-16T07:07:38.244Z,1026.14
2023-03-16T07:08:38.240Z,1026.15
2023-03-16T07:09:40.377Z,1026.14
2023-03-16T07:10:38.246Z,1026.14
2023-03-16T07:11:38.287Z,1026.1
2023-03-16T07:12:38.246Z,1026.15
2023-03-16T07:13:38.249Z,1026.15
2023-03-16T07:14:38.257Z,1026.13
2023-03-16T07:15:38.247Z,1026.09
2023-03-16T07:16:38.347Z,1026.09
2023-03-16T07:17:38.255Z,1026.06
2023-03-16T07:18:38.250Z,1026.09
2023-03-16T07:19:38.245Z,1026.08
2023-03-16T07:20:38.238Z,1026.09
2023-03-16T07:21:38.244Z,1026.1
2023-03-16T07:22:38.239Z,1026.09
2023-03-16T07:23:38.236Z,1026.09
2023-03-16T07:24:38.237Z,1026.12
2023-03-16T07:25:38.222Z,1026.13
2023-03-16T07:26:38.260Z,1026.06
2023-03-16T07:27:38.248Z,1026.05
2023-03-16T07:28:39.249Z,1026.06
2023-03-16T07:29:38.243Z,1026.02
2023-03-16T07:30:38.237Z,1026.04
2023-03-16T07:31:38.280Z,1026.03
2023-03-16T07:32:38.321Z,1026.05
2023-03-16T07:33:38.244Z,1026.04
2023-03-16T07:34:38.240Z,1026.05
2023-03-16T07:35:38.252Z,1026.03
2023-03-16T07:36:38.239Z,1026.06
2023-03-16T07:37:38.240Z,1026.07
2023-03-16T07:38:38.251Z,1026.12
2023-03-16T07:39:38.238Z,1026.13
2023-03-16T07:40:38.241Z,1026.13
2023-03-16T07:41:38.256Z,1026.13
2023-03-16T07:42:38.243Z,1026.14
2023-03-16T07:43:38.256Z,1026.16
2023-03-16T07:44:38.237Z,1026.14
2023-03-16T07:45:38.235Z,1026.1
2023-03-16T07:46:38.241Z,1026.08
2023-03-16T07:47:38.258Z,1026.03
2023-03-16T07:48:38.246Z,1026.02
2023-03-16T07:49:38.246Z,1026.07
2023-03-16T07:50:38.256Z,1025.99
2023-03-16T07:51:38.632Z,1026.01
2023-03-16T07:52:38.238Z,1026.03
2023-03-16T07:53:38.256Z,1025.99
2023-03-16T07:54:38.230Z,1026
2023-03-16T07:55:38.244Z,1026.01
2023-03-16T07:56:48.419Z,1026.01
2023-03-16T07:57:38.237Z,1026.01
2023-03-16T07:58:38.229Z,1026.03
2023-03-16T07:59:38.241Z,1025.99
2023-03-16T08:00:38.250Z,1026
2023-03-16T08:01:38.251Z,1026.06
2023-03-16T08:02:38.316Z,1026.05
2023-03-16T08:03:38.371Z,1026.08
2023-03-16T08:04:38.238Z,1026.07
2023-03-16T08:05:38.221Z,1026.05
2023-03-16T08:06:38.277Z,1026.03
2023-03-16T08:07:38.235Z,1026.02
2023-03-16T08:08:38.231Z,1026.03
2023-03-16T08:09:38.238Z,1026.04
2023-03-16T08:10:38.227Z,1026.03
2023-03-16T08:11:38.271Z,1026.01
2023-03-16T08:12:38.286Z,1025.99
2023-03-16T08:13:38.244Z,1025.96
2023-03-16T08:14:38.243Z,1025.97
2023-03-16T08:15:38.288Z,1025.97
2023-03-16T08:16:38.268Z,1026
2023-03-16T08:17:38.251Z,1026.01
2023-03-16T08:18:38.221Z,1025.99
2023-03-16T08:19:38.233Z,1025.98
2023-03-16T08:20:38.238Z,1026
2023-03-16T08:21:53.152Z,1025.99
2023-03-16T08:22:38.238Z,1026
2023-03-16T08:23:38.234Z,1026
2023-03-16T08:24:38.248Z,1026
2023-03-16T08:25:38.236Z,1025.96
2023-03-16T08:26:39.636Z,1025.95
2023-03-16T08:27:38.245Z,1025.98
2023-03-16T08:28:38.329Z,1026
2023-03-16T08:29:38.268Z,1026
2023-03-16T08:30:38.251Z,1025.98
2023-03-16T08:31:38.332Z,1025.98
2023-03-16T08:32:38.277Z,1026.02
2023-03-16T08:33:38.244Z,1026.05
2023-03-16T08:34:38.270Z,1026.01
2023-03-16T08:35:38.297Z,1026.06
2023-03-16T08:36:38.254Z,1026.08
2023-03-16T08:37:38.233Z,1026.1
2023-03-16T08:38:38.239Z,1026.13
2023-03-16T08:39:38.248Z,1026.1
2023-03-16T08:40:38.237Z,1026.14
2023-03-16T08:41:38.588Z,1026.16
2023-03-16T08:42:38.250Z,1026.15
2023-03-16T08:43:38.235Z,1026.14
2023-03-16T08:44:38.254Z,1026.12
2023-03-16T08:45:38.241Z,1026.12
2023-03-16T08:46:38.330Z,1026.15
2023-03-16T08:47:38.264Z,1026.16
2023-03-16T08:48:38.246Z,1026.23
2023-03-16T08:49:38.260Z,1026.22
2023-03-16T08:50:38.233Z,1026.22
2023-03-16T08:51:38.267Z,1026.22
2023-03-16T08:52:38.241Z,1026.2
2023-03-16T08:53:38.232Z,1026.23
2023-03-16T08:54:38.245Z,1026.24
2023-03-16T08:55:38.236Z,1026.27
2023-03-16T08:56:38.260Z,1026.24
2023-03-16T08:57:38.245Z,1026.24
2023-03-16T08:58:38.243Z,1026.27
2023-03-16T08:59:38.239Z,1026.32
2023-03-16T09:00:38.246Z,1026.33
2023-03-16T09:01:38.282Z,1026.29
2023-03-16T09:02:38.252Z,1026.28
2023-03-16T09:03:38.237Z,1026.29
2023-03-16T09:04:38.282Z,1026.33
2023-03-16T09:05:38.282Z,1026.35
2023-03-16T09:06:38.245Z,1026.37
2023-03-16T09:07:38.236Z,1026.35
2023-03-16T09:08:38.236Z,1026.38
2023-03-16T09:09:38.236Z,1026.38
2023-03-16T09:10:38.240Z,1026.39
2023-03-16T09:11:38.253Z,1026.39
2023-03-16T09:12:38.242Z,1026.37
2023-03-16T09:13:38.241Z,1026.32
2023-03-16T09:14:38.246Z,1026.35
2023-03-16T09:15:38.240Z,1026.28
2023-03-16T09:16:38.296Z,1026.29
2023-03-16T09:17:38.246Z,1026.26
2023-03-16T09:18:38.242Z,1026.23
2023-03-16T09:19:50.612Z,1026.27
2023-03-16T09:20:38.601Z,1026.26
2023-03-16T09:21:38.244Z,1026.29
2023-03-16T09:22:38.231Z,1026.27
2023-03-16T09:23:38.226Z,1026.24
2023-03-16T09:24:38.228Z,1026.23
2023-03-16T09:25:40.813Z,1026.21
2023-03-16T09:26:38.343Z,1026.24
2023-03-16T09:27:38.229Z,1026.21
2023-03-16T09:28:38.225Z,1026.24
2023-03-16T09:29:38.231Z,1026.23
2023-03-16T09:30:38.757Z,1026.18
2023-03-16T09:31:38.397Z,1026.15
2023-03-16T09:32:38.299Z,1026.18
2023-03-16T09:33:38.234Z,1026.2
2023-03-16T09:34:38.241Z,1026.14
2023-03-16T09:35:38.427Z,1026.2
2023-03-16T09:36:38.271Z,1026.16
2023-03-16T09:37:44.942Z,1026.29
2023-03-16T09:38:38.221Z,1026.25
2023-03-16T09:39:38.250Z,1026.29
2023-03-16T09:40:38.421Z,1026.25
2023-03-16T09:41:38.251Z,1026.26
2023-03-16T09:42:38.241Z,1026.37
2023-03-16T09:43:38.221Z,1026.29
2023-03-16T09:44:38.245Z,1026.25
2023-03-16T09:45:38.281Z,1026.23
2023-03-16T09:46:38.238Z,1026.25
2023-03-16T09:47:38.245Z,1026.33
2023-03-16T09:48:38.243Z,1026.33
2023-03-16T09:49:38.232Z,1026.36
2023-03-16T09:50:47.759Z,1026.39
2023-03-16T09:51:38.280Z,1026.35
2023-03-16T09:52:38.223Z,1026.43
2023-03-16T09:53:38.261Z,1026.37
2023-03-16T09:54:38.229Z,1026.43
2023-03-16T09:55:38.236Z,1026.36
2023-03-16T09:56:38.237Z,1026.39
2023-03-16T09:57:38.296Z,1026.39
2023-03-16T09:58:38.254Z,1026.47
2023-03-16T09:59:38.223Z,1026.44
2023-03-16T10:00:38.230Z,1026.35
2023-03-16T10:01:38.242Z,1026.37
2023-03-16T10:02:38.259Z,1026.38
2023-03-16T10:03:38.264Z,1026.38
2023-03-16T10:04:38.244Z,1026.41
2023-03-16T10:05:38.235Z,1026.41
2023-03-16T10:06:38.248Z,1026.44
2023-03-16T10:07:38.238Z,1026.48
2023-03-16T10:08:38.216Z,1026.4
2023-03-16T10:09:38.241Z,1026.38
2023-03-16T10:10:38.228Z,1026.38
2023-03-16T10:11:38.250Z,1026.39
2023-03-16T10:12:38.229Z,1026.41
2023-03-16T10:13:38.234Z,1026.32
2023-03-16T10:14:38.266Z,1026.33
2023-03-16T10:15:38.228Z,1026.27
2023-03-16T10:16:38.310Z,1026.3
2023-03-16T10:17:38.245Z,1026.27
2023-03-16T10:18:38.231Z,1026.28
2023-03-16T10:19:38.226Z,1026.35
2023-03-16T10:20:38.229Z,1026.27
2023-03-16T10:21:38.234Z,1026.27
2023-03-16T10:22:38.232Z,1026.25
2023-03-16T10:23:40.265Z,1026.28
2023-03-16T10:24:38.224Z,1026.33
2023-03-16T10:25:38.229Z,1026.35
2023-03-16T10:26:38.251Z,1026.28
2023-03-16T10:27:38.230Z,1026.32
2023-03-16T10:28:38.232Z,1026.3
2023-03-16T10:29:38.228Z,1026.31
2023-03-16T10:30:38.232Z,1026.29
2023-03-16T10:31:38.495Z,1026.24
2023-03-16T10:32:38.289Z,1026.25
2023-03-16T10:33:38.230Z,1026.25
2023-03-16T10:34:38.243Z,1026.25
2023-03-16T10:35:38.243Z,1026.23
2023-03-16T10:36:38.287Z,1026.23
2023-03-16T10:37:38.225Z,1026.15
2023-03-16T10:38:38.234Z,1026.18
2023-03-16T10:39:38.227Z,1026.13
2023-03-16T10:40:38.222Z,1026.15
2023-03-16T10:41:38.251Z,1026.03
2023-03-16T10:42:38.234Z,1026.08
2023-03-16T10:43:38.223Z,1026.09
2023-03-16T10:44:38.235Z,1026.09
2023-03-16T10:45:38.310Z,1026.04
2023-03-16T10:46:38.421Z,1026.01
2023-03-16T10:47:38.281Z,1025.98
2023-03-16T10:48:38.226Z,1025.98
2023-03-16T10:49:38.248Z,1025.96
2023-03-16T10:50:38.239Z,1025.98
2023-03-16T10:51:38.310Z,1025.87
2023-03-16T10:52:38.244Z,1025.91
2023-03-16T10:53:38.233Z,1025.95
2023-03-16T10:54:38.234Z,1025.95
2023-03-16T10:55:38.231Z,1025.96
2023-03-16T10:56:38.263Z,1025.91
2023-03-16T10:57:38.238Z,1025.91
2023-03-16T10:58:38.231Z,1025.9
2023-03-16T10:59:38.259Z,1025.82
2023-03-16T11:00:38.235Z,1025.79
2023-03-16T11:01:38.367Z,1025.82
2023-03-16T11:02:38.260Z,1025.8
2023-03-16T11:03:38.284Z,1025.84
2023-03-16T11:04:38.314Z,1025.8
2023-03-16T11:05:38.233Z,1025.89
2023-03-16T11:06:38.242Z,1025.79
2023-03-16T11:07:38.234Z,1025.77
2023-03-16T11:08:38.236Z,1025.83
2023-03-16T11:09:38.247Z,1025.76
2023-03-16T11:10:49.532Z,1025.77
2023-03-16T11:11:38.265Z,1025.77
2023-03-16T11:12:38.236Z,1025.76
2023-03-16T11:13:38.253Z,1025.75
2023-03-16T11:14:38.243Z,1025.74
2023-03-16T11:15:38.252Z,1025.73
2023-03-16T11:16:38.359Z,1025.72
2023-03-16T11:17:38.304Z,1025.74
2023-03-16T11:18:38.234Z,1025.74
2023-03-16T11:19:38.230Z,1025.72
2023-03-16T11:20:38.240Z,1025.74
2023-03-16T11:21:38.260Z,1025.76
2023-03-16T11:22:38.247Z,1025.73
2023-03-16T11:23:38.255Z,1025.79
2023-03-16T11:24:38.259Z,1025.77
2023-03-16T11:25:38.250Z,1025.74
2023-03-16T11:26:38.266Z,1025.72
2023-03-16T11:27:38.262Z,1025.71
2023-03-16T11:28:38.250Z,1025.74
2023-03-16T11:29:38.255Z,1025.76
2023-03-16T11:30:38.245Z,1025.73
2023-03-16T11:31:38.256Z,1025.76
2023-03-16T11:32:38.329Z,1025.75
2023-03-16T11:33:38.239Z,1025.77
2023-03-16T11:34:38.247Z,1025.73
2023-03-16T11:35:41.971Z,1025.7
2023-03-16T11:36:38.257Z,1025.71
2023-03-16T11:37:38.259Z,1025.67
2023-03-16T11:38:38.247Z,1025.7
2023-03-16T11:39:38.245Z,1025.67
2023-03-16T11:40:38.243Z,1025.67
2023-03-16T11:41:38.267Z,1025.61
2023-03-16T11:42:38.255Z,1025.59
2023-03-16T11:43:38.256Z,1025.6
2023-03-16T11:44:38.251Z,1025.59
2023-03-16T11:45:38.252Z,1025.56
2023-03-16T11:46:38.274Z,1025.56
2023-03-16T11:47:38.267Z,1025.56
2023-03-16T11:48:38.254Z,1025.55
2023-03-16T11:49:38.244Z,1025.55
2023-03-16T11:50:38.257Z,1025.49
2023-03-16T11:51:39.140Z,1025.52
2023-03-16T11:52:38.252Z,1025.46
2023-03-16T11:53:38.254Z,1025.46
2023-03-16T11:54:38.248Z,1025.47
2023-03-16T11:55:38.242Z,1025.37
2023-03-16T11:56:38.267Z,1025.35
2023-03-16T11:57:38.234Z,1025.35
2023-03-16T11:58:38.250Z,1025.31
2023-03-16T11:59:38.738Z,1025.32
2023-03-16T12:00:38.242Z,1025.31
2023-03-16T12:01:40.912Z,1025.21
2023-03-16T12:02:38.397Z,1025.23
2023-03-16T12:03:38.333Z,1025.22
2023-03-16T12:04:38.257Z,1025.2
2023-03-16T12:05:38.246Z,1025.24
2023-03-16T12:06:38.250Z,1025.17
2023-03-16T12:07:38.222Z,1025.3
2023-03-16T12:08:38.235Z,1025.17
2023-03-16T12:09:38.242Z,1025.12